BRIO2: Bridgeport 4E

                                SHEF ID:       BRIO2     Canadian River at Bridgeport, OK
STATION TYPE:
Regulating: Stage = 15.00, Flow = 8372

STAGE RIV-FLOW BAT-LOAD
ft cfs volt
Ccp-Rev Ccp-Rev Ccp-Rev
(America/Chicago)
10/26 00:00 10.72 453 12.65
10/26 01:00 10.69 439 12.63
10/26 02:00 10.67 430 12.60
10/26 03:00 10.65 421 12.58
10/26 04:00 10.64 417 12.58
10/26 05:00 10.65 421 12.57
10/26 06:00 10.67 430 12.59
10/26 07:00 10.70 444 12.60
10/26 08:00 10.72 453 12.60
10/26 09:00 10.74 463 12.70
10/26 10:00 10.78 482 13.49
10/26 11:00 10.81 496 13.75
10/26 12:00 10.81 496 13.62
10/26 13:00 10.85 517 13.55
10/26 14:00 10.84 512 13.55
10/26 15:00 10.86 522 13.57
10/26 16:00 10.85 517 13.55
10/26 17:00 10.83 506 13.34
10/26 18:00 10.81 496 13.16
10/26 19:00 10.78 482 12.91
10/26 20:00 10.76 472 12.79
10/26 21:00 10.73 458 12.76
10/26 22:00 10.70 444 12.76
10/26 23:00 10.68 435 12.76
Data processed at Fri 27Oct2023 04:55 GMT

Parsing this webpage?

Checkout our new Data API! CWMSDataAPI (CDA)

All information presented herein is the property of the government of the United States of America and may be revised or deleted at any time without prior notice. Dissemination of this information without the expressed written consent of the Public Affairs Office, Tulsa District U.S. Army Corps of Engineers is strictly prohibited. These data are gathered electronically and, as presented, have NOT undergone any form of quality control. These data are NOT guaranteed to be valid or correct.